Nippon Maru — JNNU — position and weather

sailwx.info

Track history (hours):
 
Tides and Currents Weather Stations Pressure Air Temp Water Temp Dewpoint Dewpoint Depression Visibility Wind Speed Wind Dir Waves Ship Positions

Nippon Maru

Last reported at 2018-Jul-22 11:46 UTC. Time now 2018-Jul-22 16:28 UTC.
Position N 34°51' E 139°52'.

Length 167 m; draft 6.5 m.

Type: Passenger vessel. MMSI: 431302000.

Date/timePositionNaut miles runAvg speedWind from/ knotsBaromVisibWave heightAir tempDewpointWater temp
2018-Jul-22 11:46N 34°51' E 139°52'414.2
2018-Jul-22 11:30N 34°52' E 139°48'713.9
2018-Jul-22 10:59N 34°57' E 139°42'613.1
2018-Jul-22 10:30N 35°01' E 139°37'612.3
2018-Jul-22 10:00N 35°07' E 139°34'612.2
2018-Jul-22 09:30N 35°12' E 139°30'610.4
2018-Jul-22 08:56N 35°18' E 139°28'0 0.0
2018-Jul-22 06:43N 35°18' E 139°28'0 0.0
2018-Jul-22 03:10N 35°18' E 139°28'0 0.0
2018-Jul-22 02:55N 35°18' E 139°28'0 0.0
2018-Jul-21 22:31N 35°18' E 139°28'0 0.1
2018-Jul-21 21:43N 35°18' E 139°28'0 0.7
2018-Jul-21 21:30N 35°18' E 139°28'714.5
2018-Jul-21 21:00N 35°11' E 139°24'917.4
2018-Jul-21 20:29N 35°03' E 139°19'917.2
2018-Jul-21 19:58N 34°55' E 139°15'22 0.8
2018-Jul-20 15:35N 34°42' E 139°36'217.0
2018-Jul-20 15:26N 34°43' E 139°38'716.1
2018-Jul-20 14:58N 34°47' E 139°46'5 0.2
2018-Jul-19 07:51N 34°51' E 139°48'716.7
2018-Jul-19 07:27N 34°57' E 139°44'817.1
2018-Jul-19 07:00N 35°04' E 139°44'816.6
2018-Jul-19 06:31N 35°12' E 139°46'612.3
2018-Jul-19 06:00N 35°18' E 139°44'611.6
2018-Jul-19 05:30N 35°24' E 139°42'4 8.9
2018-Jul-19 05:01N 35°27' E 139°39'0 0.6
2018-Jul-19 04:29N 35°27' E 139°39'0 0.1
2018-Jul-19 03:59N 35°27' E 139°39'0 0.0
2018-Jul-19 03:29N 35°27' E 139°39'0 0.1
2018-Jul-19 02:56N 35°27' E 139°39'0 0.1
2018-Jul-19 02:29N 35°27' E 139°39'0 0.0
2018-Jul-19 01:59N 35°27' E 139°39'0 0.1
2018-Jul-19 01:29N 35°27' E 139°39'0 0.0
2018-Jul-19 00:59N 35°27' E 139°39'0 0.0
2018-Jul-19 00:29N 35°27' E 139°39'0 0.1
2018-Jul-18 23:59N 35°27' E 139°39'0 0.3
2018-Jul-18 23:31N 35°27' E 139°39'3 5.2
2018-Jul-18 23:01N 35°26' E 139°42'612.2
2018-Jul-18 22:30N 35°20' E 139°43'612.6
2018-Jul-18 22:00N 35°15' E 139°47'713.4
2018-Jul-18 21:30N 35°08' E 139°45'714.3
2018-Jul-18 21:00N 35°01' E 139°43'713.8
2018-Jul-18 20:30N 34°54' E 139°42'2615.1
2018-Jul-18 18:47N 34°29' E 139°48'  
2018-Jul-14 14:11N 34°51' E 139°43'1319.6
2018-Jul-14 13:30N 35°04' E 139°42'917.9
2018-Jul-14 13:01N 35°12' E 139°46'612.5
2018-Jul-14 12:31N 35°18' E 139°44'714.3
2018-Jul-14 12:00N 35°25' E 139°42'3 5.6
2018-Jul-14 11:30N 35°27' E 139°39'0 0.0
2018-Jul-14 10:58N 35°27' E 139°39'0 0.0
2018-Jul-14 10:28N 35°27' E 139°39'0 0.0
2018-Jul-14 09:58N 35°27' E 139°39'0 0.0
2018-Jul-14 09:28N 35°27' E 139°39'0 0.0
2018-Jul-14 08:58N 35°27' E 139°39'0 0.0
2018-Jul-14 08:28N 35°27' E 139°39'0 0.0
2018-Jul-14 07:58N 35°27' E 139°39'0 0.0
2018-Jul-14 07:28N 35°27' E 139°39'0 0.0
2018-Jul-14 06:58N 35°27' E 139°39'0 0.0
2018-Jul-14 06:28N 35°27' E 139°39'0 0.0
2018-Jul-14 05:58N 35°27' E 139°39'0 0.0
2018-Jul-14 05:28N 35°27' E 139°39'0 0.0
2018-Jul-14 04:58N 35°27' E 139°39'0 0.0
2018-Jul-14 04:28N 35°27' E 139°39'0 0.0
2018-Jul-14 03:58N 35°27' E 139°39'0 0.0
2018-Jul-14 03:28N 35°27' E 139°39'0 0.0
2018-Jul-14 02:58N 35°27' E 139°39'0 0.0
2018-Jul-14 02:28N 35°27' E 139°39'0 0.0
2018-Jul-14 01:58N 35°27' E 139°39'0 0.0
2018-Jul-14 01:28N 35°27' E 139°39'0 0.6
2018-Jul-14 01:00N 35°27' E 139°39'3 6.3
2018-Jul-14 00:31N 35°25' E 139°42'714.0
2018-Jul-14 00:00N 35°18' E 139°44'612.0
2018-Jul-13 23:30N 35°13' E 139°47'714.4
2018-Jul-13 23:00N 35°06' E 139°45'815.1
2018-Jul-13 22:30N 34°58' E 139°43'713.9
2018-Jul-13 22:00N 34°52' E 139°47'1013.8
2018-Jul-13 21:15N 34°53' E 139°60'413.8
2018-Jul-13 20:59N 34°55' E 140°04'913.1
2018-Jul-13 20:20N 34°59' E 140°13'815.2
2018-Jul-13 19:48N 35°04' E 140°21'2317.0
2018-Jul-13 18:26N 35°20' E 140°42'  
Track history (hours):
 
Tides and Currents Weather Stations Pressure Air Temp Water Temp Dewpoint Dewpoint Depression Visibility Wind Speed Wind Dir Waves Ship Positions

Nippon Maru

Last reported at 2018-Jul-22 11:46 UTC. Time now 2018-Jul-22 16:28 UTC.
Position N 34°51' E 139°52'.

Length 167 m; draft 6.5 m.

Type: Passenger vessel. MMSI: 431302000.

Date/timePositionNaut miles runAvg speedWind from/ knotsBaromVisibWave heightAir tempDewpointWater temp
2018-Jul-22 11:46N 34°51' E 139°52'414.2
2018-Jul-22 11:30N 34°52' E 139°48'713.9
2018-Jul-22 10:59N 34°57' E 139°42'613.1
2018-Jul-22 10:30N 35°01' E 139°37'612.3
2018-Jul-22 10:00N 35°07' E 139°34'612.2
2018-Jul-22 09:30N 35°12' E 139°30'610.4
2018-Jul-22 08:56N 35°18' E 139°28'0 0.0
2018-Jul-22 06:43N 35°18' E 139°28'0 0.0
2018-Jul-22 03:10N 35°18' E 139°28'0 0.0
2018-Jul-22 02:55N 35°18' E 139°28'0 0.0
2018-Jul-21 22:31N 35°18' E 139°28'0 0.1
2018-Jul-21 21:43N 35°18' E 139°28'0 0.7
2018-Jul-21 21:30N 35°18' E 139°28'714.5
2018-Jul-21 21:00N 35°11' E 139°24'917.4
2018-Jul-21 20:29N 35°03' E 139°19'917.2
2018-Jul-21 19:58N 34°55' E 139°15'22 0.8
2018-Jul-20 15:35N 34°42' E 139°36'217.0
2018-Jul-20 15:26N 34°43' E 139°38'716.1
2018-Jul-20 14:58N 34°47' E 139°46'5 0.2
2018-Jul-19 07:51N 34°51' E 139°48'716.7
2018-Jul-19 07:27N 34°57' E 139°44'817.1
2018-Jul-19 07:00N 35°04' E 139°44'816.6
2018-Jul-19 06:31N 35°12' E 139°46'612.3
2018-Jul-19 06:00N 35°18' E 139°44'611.6
2018-Jul-19 05:30N 35°24' E 139°42'4 8.9
2018-Jul-19 05:01N 35°27' E 139°39'0 0.6
2018-Jul-19 04:29N 35°27' E 139°39'0 0.1
2018-Jul-19 03:59N 35°27' E 139°39'0 0.0
2018-Jul-19 03:29N 35°27' E 139°39'0 0.1
2018-Jul-19 02:56N 35°27' E 139°39'0 0.1
2018-Jul-19 02:29N 35°27' E 139°39'0 0.0
2018-Jul-19 01:59N 35°27' E 139°39'0 0.1
2018-Jul-19 01:29N 35°27' E 139°39'0 0.0
2018-Jul-19 00:59N 35°27' E 139°39'0 0.0
2018-Jul-19 00:29N 35°27' E 139°39'0 0.1
2018-Jul-18 23:59N 35°27' E 139°39'0 0.3
2018-Jul-18 23:31N 35°27' E 139°39'3 5.2
2018-Jul-18 23:01N 35°26' E 139°42'612.2
2018-Jul-18 22:30N 35°20' E 139°43'612.6
2018-Jul-18 22:00N 35°15' E 139°47'713.4
2018-Jul-18 21:30N 35°08' E 139°45'714.3
2018-Jul-18 21:00N 35°01' E 139°43'713.8
2018-Jul-18 20:30N 34°54' E 139°42'2615.1
2018-Jul-18 18:47N 34°29' E 139°48'  
2018-Jul-14 14:11N 34°51' E 139°43'1319.6
2018-Jul-14 13:30N 35°04' E 139°42'917.9
2018-Jul-14 13:01N 35°12' E 139°46'612.5
2018-Jul-14 12:31N 35°18' E 139°44'714.3
2018-Jul-14 12:00N 35°25' E 139°42'3 5.6
2018-Jul-14 11:30N 35°27' E 139°39'0 0.0
2018-Jul-14 10:58N 35°27' E 139°39'0 0.0
2018-Jul-14 10:28N 35°27' E 139°39'0 0.0
2018-Jul-14 09:58N 35°27' E 139°39'0 0.0
2018-Jul-14 09:28N 35°27' E 139°39'0 0.0
2018-Jul-14 08:58N 35°27' E 139°39'0 0.0
2018-Jul-14 08:28N 35°27' E 139°39'0 0.0
2018-Jul-14 07:58N 35°27' E 139°39'0 0.0
2018-Jul-14 07:28N 35°27' E 139°39'0 0.0
2018-Jul-14 06:58N 35°27' E 139°39'0 0.0
2018-Jul-14 06:28N 35°27' E 139°39'0 0.0
2018-Jul-14 05:58N 35°27' E 139°39'0 0.0
2018-Jul-14 05:28N 35°27' E 139°39'0 0.0
2018-Jul-14 04:58N 35°27' E 139°39'0 0.0
2018-Jul-14 04:28N 35°27' E 139°39'0 0.0
2018-Jul-14 03:58N 35°27' E 139°39'0 0.0
2018-Jul-14 03:28N 35°27' E 139°39'0 0.0
2018-Jul-14 02:58N 35°27' E 139°39'0 0.0
2018-Jul-14 02:28N 35°27' E 139°39'0 0.0
2018-Jul-14 01:58N 35°27' E 139°39'0 0.0
2018-Jul-14 01:28N 35°27' E 139°39'0 0.6
2018-Jul-14 01:00N 35°27' E 139°39'3 6.3
2018-Jul-14 00:31N 35°25' E 139°42'714.0
2018-Jul-14 00:00N 35°18' E 139°44'612.0
2018-Jul-13 23:30N 35°13' E 139°47'714.4
2018-Jul-13 23:00N 35°06' E 139°45'815.1
2018-Jul-13 22:30N 34°58' E 139°43'713.9
2018-Jul-13 22:00N 34°52' E 139°47'1013.8
2018-Jul-13 21:15N 34°53' E 139°60'413.8
2018-Jul-13 20:59N 34°55' E 140°04'913.1
2018-Jul-13 20:20N 34°59' E 140°13'815.2
2018-Jul-13 19:48N 35°04' E 140°21'2317.0
2018-Jul-13 18:26N 35°20' E 140°42'  

Dump ship's entire track history